createdAt,value
2018-08-24T00:01:08.318Z,98496.25
2018-08-24T00:03:42.987Z,98495.33
2018-08-24T00:06:17.658Z,98493.16
2018-08-24T00:08:52.193Z,98498.30
2018-08-24T00:11:27.122Z,98498.67
2018-08-24T00:14:01.716Z,98494.31
2018-08-24T00:16:40.469Z,98494.03
2018-08-24T00:19:16.176Z,98491.58
2018-08-24T00:21:50.657Z,98503.02
2018-08-24T00:24:25.209Z,98510.03
2018-08-24T00:26:59.753Z,98512.37
2018-08-24T00:29:34.336Z,98511.80
2018-08-24T00:32:08.951Z,98506.29
2018-08-24T00:34:43.747Z,98504.80
2018-08-24T00:37:18.796Z,98509.06
2018-08-24T00:39:53.448Z,98507.70
2018-08-24T00:42:28.277Z,98508.32
2018-08-24T00:45:02.823Z,98496.17
2018-08-24T00:47:37.401Z,98504.99
2018-08-24T00:50:12.044Z,98494.42
2018-08-24T00:52:46.736Z,98497.70
2018-08-24T00:55:21.589Z,98498.33
2018-08-24T00:57:56.253Z,98496.11
2018-08-24T01:00:36.028Z,98497.02
2018-08-24T01:03:11.449Z,98492.25
2018-08-24T01:05:45.908Z,98500.52
2018-08-24T01:08:20.504Z,98498.72
2018-08-24T01:10:55.153Z,98493.59
2018-08-24T01:13:29.744Z,98495.28
2018-08-24T01:16:04.314Z,98489.45
2018-08-24T01:18:44.131Z,98486.60
2018-08-24T01:21:18.660Z,98498.17
2018-08-24T01:23:53.251Z,98487.39
2018-08-24T01:26:28.122Z,98491.03
2018-08-24T01:29:03.030Z,98486.81
2018-08-24T01:31:37.712Z,98497.82
2018-08-24T01:34:12.355Z,98493.05
2018-08-24T01:36:47.014Z,98500.02
2018-08-24T01:39:21.737Z,98490.67
2018-08-24T01:41:56.544Z,98495.00
2018-08-24T01:44:31.469Z,98494.90
2018-08-24T01:47:06.109Z,98489.16
2018-08-24T01:49:40.816Z,98484.61
2018-08-24T01:52:15.338Z,98485.97
2018-08-24T01:54:50.067Z,98485.08
2018-08-24T01:57:24.648Z,98476.89
2018-08-24T01:59:59.649Z,98477.69
2018-08-24T02:02:34.592Z,98480.30
2018-08-24T02:05:09.421Z,98477.25
2018-08-24T02:07:44.059Z,98472.23
2018-08-24T02:10:24.018Z,98476.58
2018-08-24T02:13:04.109Z,98478.14
2018-08-24T02:15:44.841Z,98483.22
2018-08-24T02:18:24.840Z,98484.77
2018-08-24T02:21:04.657Z,98483.08
2018-08-24T02:23:39.678Z,98487.40
2018-08-24T02:26:14.436Z,98486.66
2018-08-24T02:28:49.187Z,98482.70
2018-08-24T02:31:24.489Z,98487.36
2018-08-24T02:33:59.114Z,98486.70
2018-08-24T02:36:33.813Z,98486.81
2018-08-24T02:39:11.820Z,98496.48
2018-08-24T02:41:46.386Z,98488.18
2018-08-24T02:44:25.218Z,98487.75
2018-08-24T02:46:59.801Z,98481.63
2018-08-24T02:49:34.377Z,98478.97
2018-08-24T02:52:08.985Z,98470.80
2018-08-24T02:54:43.579Z,98468.88
2018-08-24T02:57:18.381Z,98473.28
2018-08-24T02:59:53.001Z,98475.08
2018-08-24T03:02:28.269Z,98470.75
2018-08-24T03:05:03.180Z,98472.20
2018-08-24T03:07:37.966Z,98472.64
2018-08-24T03:10:12.645Z,98477.41
2018-08-24T03:12:47.227Z,98475.53
2018-08-24T03:15:21.985Z,98476.75
2018-08-24T03:17:56.753Z,98479.98
2018-08-24T03:20:31.589Z,98486.20
2018-08-24T03:23:06.432Z,98485.91
2018-08-24T03:25:41.333Z,98482.59
2018-08-24T03:28:15.857Z,98482.73
2018-08-24T03:30:50.400Z,98493.47
2018-08-24T03:33:25.024Z,98493.83
2018-08-24T03:35:59.736Z,98487.58
2018-08-24T03:38:34.333Z,98489.95
2018-08-24T03:41:09.169Z,98491.70
2018-08-24T03:43:43.821Z,98497.97
2018-08-24T03:46:18.898Z,98493.23
2018-08-24T03:48:53.353Z,98488.38
2018-08-24T03:51:28.029Z,98496.00
2018-08-24T03:54:06.845Z,98502.92
2018-08-24T03:56:41.881Z,98506.20
2018-08-24T03:59:16.445Z,98504.94
2018-08-24T04:01:51.429Z,98501.75
2018-08-24T04:04:29.581Z,98501.31
2018-08-24T04:07:04.104Z,98507.66
2018-08-24T04:09:39.001Z,98504.41
2018-08-24T04:12:13.581Z,98512.40
2018-08-24T04:14:48.260Z,98514.52
2018-08-24T04:17:28.180Z,98507.41
2018-08-24T04:20:02.875Z,98506.84
2018-08-24T04:22:37.581Z,98507.71
2018-08-24T04:25:12.393Z,98510.51
2018-08-24T04:27:47.071Z,98521.50
2018-08-24T04:30:21.780Z,98515.58
2018-08-24T04:32:56.390Z,98510.41
2018-08-24T04:35:36.698Z,98512.91
2018-08-24T04:38:11.282Z,98512.61
2018-08-24T04:40:45.930Z,98506.78
2018-08-24T04:43:20.513Z,98512.67
2018-08-24T04:45:55.069Z,98512.72
2018-08-24T04:48:29.836Z,98509.44
2018-08-24T04:51:04.402Z,98510.59
2018-08-24T04:53:38.884Z,98515.33
2018-08-24T04:56:13.521Z,98512.40
2018-08-24T04:58:48.291Z,98517.82
2018-08-24T05:01:23.146Z,98512.70
2018-08-24T05:03:58.644Z,98511.89
2018-08-24T05:06:33.265Z,98521.98
2018-08-24T05:09:10.139Z,98518.06
2018-08-24T05:11:44.533Z,98521.46
2018-08-24T05:14:19.174Z,98520.86
2018-08-24T05:16:53.833Z,98532.04
2018-08-24T05:19:28.481Z,98533.70
2018-08-24T05:22:03.112Z,98537.66
2018-08-24T05:24:37.786Z,98529.77
2018-08-24T05:27:13.192Z,98534.98
2018-08-24T05:29:47.737Z,98538.94
2018-08-24T05:32:22.382Z,98531.68
2018-08-24T05:34:57.035Z,98532.68
2018-08-24T05:37:31.685Z,98530.99
2018-08-24T05:40:06.257Z,98533.58
2018-08-24T05:42:40.816Z,98531.71
2018-08-24T05:45:16.065Z,98537.44
2018-08-24T05:47:50.474Z,98537.93
2018-08-24T05:50:25.507Z,98544.05
2018-08-24T05:53:00.081Z,98545.58
2018-08-24T05:55:34.694Z,98541.02
2018-08-24T05:58:10.241Z,98549.22
2018-08-24T06:00:46.336Z,98547.54
2018-08-24T06:03:20.858Z,98544.64
2018-08-24T06:06:01.869Z,98545.17
2018-08-24T06:08:37.049Z,98546.19
2018-08-24T06:11:11.797Z,98541.14
2018-08-24T06:13:46.449Z,98541.21
2018-08-24T06:16:20.945Z,98538.72
2018-08-24T06:18:55.459Z,98548.31
2018-08-24T06:21:30.553Z,98546.55
2018-08-24T06:24:12.213Z,98550.34
2018-08-24T06:26:46.853Z,98552.94
2018-08-24T06:29:21.377Z,98552.20
2018-08-24T06:31:55.892Z,98551.10
2018-08-24T06:34:30.921Z,98560.14
2018-08-24T06:37:05.441Z,98556.23
2018-08-24T06:39:40.281Z,98560.72
2018-08-24T06:42:14.802Z,98561.67
2018-08-24T06:44:49.501Z,98560.30
2018-08-24T06:47:24.383Z,98565.22
2018-08-24T06:49:58.788Z,98562.82
2018-08-24T06:52:33.444Z,98563.39
2018-08-24T06:55:08.209Z,98572.53
2018-08-24T06:57:42.769Z,98572.55
2018-08-24T07:00:21.332Z,98574.01
2018-08-24T07:02:56.029Z,98572.91
2018-08-24T07:05:31.556Z,98570.38
2018-08-24T07:08:06.005Z,98573.12
2018-08-24T07:10:40.604Z,98579.86
2018-08-24T07:13:15.645Z,98577.02
2018-08-24T07:15:50.290Z,98577.22
2018-08-24T07:18:25.229Z,98581.97
2018-08-24T07:21:00.089Z,98587.23
2018-08-24T07:23:35.193Z,98591.42
2018-08-24T07:26:09.793Z,98588.48
2018-08-24T07:28:44.741Z,98599.97
2018-08-24T07:31:19.297Z,98597.56
2018-08-24T07:33:53.946Z,98594.05
2018-08-24T07:36:28.637Z,98595.90
2018-08-24T07:39:04.039Z,98603.77
2018-08-24T07:41:38.915Z,98594.83
2018-08-24T07:44:13.543Z,98604.52
2018-08-24T07:46:48.246Z,98598.72
2018-08-24T07:49:23.093Z,98606.09
2018-08-24T07:51:57.849Z,98610.22
2018-08-24T07:54:32.484Z,98604.30
2018-08-24T07:57:07.222Z,98613.95
2018-08-24T07:59:41.856Z,98618.00
2018-08-24T08:02:16.877Z,98618.22
2018-08-24T08:04:52.746Z,98621.48
2018-08-24T08:07:27.098Z,98619.11
2018-08-24T08:10:01.622Z,98621.42
2018-08-24T08:12:36.252Z,98619.40
2018-08-24T08:15:11.424Z,98618.16
2018-08-24T08:17:46.064Z,98612.38
2018-08-24T08:20:20.815Z,98613.48
2018-08-24T08:22:55.353Z,98614.22
2018-08-24T08:25:30.001Z,98609.72
2018-08-24T08:28:04.542Z,98620.62
2018-08-24T08:30:39.225Z,98624.16
2018-08-24T08:33:13.748Z,98626.84
2018-08-24T08:35:48.583Z,98627.63
2018-08-24T08:38:23.381Z,98635.55
2018-08-24T08:40:58.033Z,98633.34
2018-08-24T08:43:32.675Z,98636.45
2018-08-24T08:46:07.433Z,98642.53
2018-08-24T08:48:42.138Z,98655.88
2018-08-24T08:51:16.784Z,98651.08
2018-08-24T08:53:51.473Z,98667.25
2018-08-24T08:56:26.191Z,98676.72
2018-08-24T08:59:00.749Z,98682.89
2018-08-24T09:01:35.391Z,98687.34
2018-08-24T09:04:09.965Z,98688.84
2018-08-24T09:06:45.050Z,98700.59
2018-08-24T09:09:19.652Z,98702.98
2018-08-24T09:11:54.471Z,98704.80
2018-08-24T09:14:29.219Z,98704.32
2018-08-24T09:17:09.164Z,98702.66
2018-08-24T09:19:49.085Z,98701.02
2018-08-24T09:22:29.084Z,98703.47
2018-08-24T09:25:08.988Z,98697.78
2018-08-24T09:27:48.861Z,98694.39
2018-08-24T09:30:24.694Z,98697.59
2018-08-24T09:32:59.423Z,98708.81
2018-08-24T09:35:34.233Z,98702.33
2018-08-24T09:38:08.921Z,98714.55
2018-08-24T09:40:48.877Z,98718.44
2018-08-24T09:43:29.345Z,98721.14
2018-08-24T09:46:04.064Z,98707.95
2018-08-24T09:48:44.100Z,98712.52
2018-08-24T09:51:24.330Z,98710.83
2018-08-24T09:54:05.376Z,98711.59
2018-08-24T09:56:40.870Z,98713.34
2018-08-24T09:59:15.429Z,98719.14
2018-08-24T10:01:55.484Z,98717.38
2018-08-24T10:04:35.297Z,98717.54
2018-08-24T10:07:15.270Z,98714.84
2018-08-24T10:09:49.901Z,98714.16
2018-08-24T10:12:24.396Z,98706.95
2018-08-24T10:14:59.014Z,98701.52
2018-08-24T10:17:33.705Z,98698.91
2018-08-24T10:20:08.360Z,98707.84
2018-08-24T10:22:42.917Z,98712.13
2018-08-24T10:25:17.582Z,98711.11
2018-08-24T10:27:52.161Z,98700.14
2018-08-24T10:30:26.895Z,98710.80
2018-08-24T10:33:01.745Z,98702.35
2018-08-24T10:35:36.412Z,98696.84
2018-08-24T10:38:11.868Z,98702.37
2018-08-24T10:40:46.590Z,98709.69
2018-08-24T10:43:21.466Z,98706.84
2018-08-24T10:45:56.138Z,98717.08
2018-08-24T10:48:30.869Z,98715.55
2018-08-24T10:51:05.746Z,98719.55
2018-08-24T10:53:40.434Z,98719.34
2018-08-24T10:56:15.172Z,98720.30
2018-08-24T10:58:49.773Z,98720.86
2018-08-24T11:01:24.437Z,98714.36
2018-08-24T11:03:59.025Z,98725.50
2018-08-24T11:06:34.007Z,98713.91
2018-08-24T11:09:09.633Z,98705.02
2018-08-24T11:11:44.408Z,98708.22
2018-08-24T11:14:18.949Z,98707.36
2018-08-24T11:16:53.852Z,98711.64
2018-08-24T11:19:28.533Z,98710.94
2018-08-24T11:22:03.040Z,98705.81
2018-08-24T11:24:37.557Z,98704.05
2018-08-24T11:27:12.259Z,98708.41
2018-08-24T11:29:47.045Z,98709.97
2018-08-24T11:32:21.649Z,98715.36
2018-08-24T11:34:56.389Z,98717.31
2018-08-24T11:37:37.632Z,98716.92
2018-08-24T11:40:28.904Z,98715.34
2018-08-24T11:43:05.677Z,98708.61
2018-08-24T11:45:40.238Z,98720.80
2018-08-24T11:48:14.917Z,98718.25
2018-08-24T11:50:49.609Z,98709.92
2018-08-24T11:53:43.169Z,98708.30
2018-08-24T11:56:17.648Z,98715.48
2018-08-24T11:58:52.448Z,98709.97
2018-08-24T12:01:27.060Z,98714.50
2018-08-24T12:04:02.013Z,98710.69
2018-08-24T12:06:36.560Z,98722.39
2018-08-24T12:09:11.566Z,98715.09
2018-08-24T12:11:46.061Z,98719.24
2018-08-24T12:14:20.672Z,98714.77
2018-08-24T12:16:55.213Z,98722.92
2018-08-24T12:19:29.889Z,98708.96
2018-08-24T12:22:04.761Z,98710.70
2018-08-24T12:24:39.407Z,98710.08
2018-08-24T12:27:14.145Z,98719.03
2018-08-24T12:29:48.704Z,98709.37
2018-08-24T12:32:23.411Z,98703.83
2018-08-24T12:34:58.081Z,98699.35
2018-08-24T12:37:38.474Z,98706.72
2018-08-24T12:40:13.536Z,98705.30
2018-08-24T12:42:48.101Z,98702.82
2018-08-24T12:45:22.581Z,98712.54
2018-08-24T12:47:57.527Z,98709.97
2018-08-24T12:50:32.303Z,98718.34
2018-08-24T12:53:06.985Z,98718.04
2018-08-24T12:55:41.526Z,98710.84
2018-08-24T12:58:16.148Z,98712.31
2018-08-24T13:00:51.036Z,98715.77
2018-08-24T13:03:26.049Z,98705.81
2018-08-24T13:06:00.586Z,98699.66
2018-08-24T13:08:35.177Z,98704.56
2018-08-24T13:11:09.781Z,98704.32
2018-08-24T13:13:44.844Z,98697.70
2018-08-24T13:16:19.353Z,98700.05
2018-08-24T13:18:54.262Z,98698.01
2018-08-24T13:21:28.852Z,98698.28
2018-08-24T13:24:03.446Z,98701.56
2018-08-24T13:26:37.942Z,98693.55
2018-08-24T13:29:12.657Z,98696.88
2018-08-24T13:31:47.244Z,98701.02
2018-08-24T13:34:34.842Z,98699.81
2018-08-24T13:37:09.466Z,98695.50
2018-08-24T13:39:43.967Z,98692.52
2018-08-24T13:42:18.592Z,98686.54
2018-08-24T13:44:53.167Z,98681.69
2018-08-24T13:47:27.849Z,98688.76
2018-08-24T13:50:02.434Z,98685.38
2018-08-24T13:52:37.277Z,98684.06
2018-08-24T13:55:11.815Z,98686.98
2018-08-24T13:57:46.301Z,98681.89
2018-08-24T14:00:21.284Z,98681.25
2018-08-24T14:02:56.345Z,98683.45
2018-08-24T14:05:30.992Z,98678.47
2018-08-24T14:08:05.421Z,98678.13
2018-08-24T14:10:40.086Z,98674.30
2018-08-24T14:13:14.767Z,98669.67
2018-08-24T14:15:49.269Z,98675.37
2018-08-24T14:18:24.069Z,98673.52
2018-08-24T14:20:58.745Z,98674.06
2018-08-24T14:23:33.249Z,98676.06
2018-08-24T14:26:08.417Z,98675.02
2018-08-24T14:28:43.190Z,98674.02
2018-08-24T14:31:17.800Z,98666.59
2018-08-24T14:33:52.542Z,98670.00
2018-08-24T14:36:27.126Z,98667.55
2018-08-24T14:39:01.793Z,98671.36
2018-08-24T14:41:36.541Z,98667.91
2018-08-24T14:44:11.136Z,98665.52
2018-08-24T14:46:46.040Z,98659.23
2018-08-24T14:49:20.695Z,98654.67
2018-08-24T14:51:55.473Z,98655.53
2018-08-24T14:54:30.260Z,98656.33
2018-08-24T14:57:05.041Z,98646.63
2018-08-24T14:59:40.413Z,98645.63
2018-08-24T15:02:15.105Z,98643.41
2018-08-24T15:05:05.179Z,98649.41
2018-08-24T15:07:41.766Z,98640.05
2018-08-24T15:10:26.726Z,98641.27
2018-08-24T15:13:12.403Z,98644.87
2018-08-24T15:15:47.484Z,98630.98
2018-08-24T15:18:22.326Z,98641.94
2018-08-24T15:20:56.876Z,98644.66
2018-08-24T15:23:31.446Z,98642.50
2018-08-24T15:26:06.429Z,98646.74
2018-08-24T15:28:40.997Z,98639.72
2018-08-24T15:31:15.629Z,98644.08
2018-08-24T15:33:50.251Z,98643.51
2018-08-24T15:36:24.892Z,98642.67
2018-08-24T15:38:59.817Z,98647.56
2018-08-24T15:41:34.533Z,98648.39
2018-08-24T15:44:09.365Z,98653.95
2018-08-24T15:46:44.066Z,98656.56
2018-08-24T15:49:19.645Z,98649.42
2018-08-24T15:51:54.166Z,98649.59
2018-08-24T15:54:29.127Z,98656.48
2018-08-24T15:57:03.657Z,98654.65
2018-08-24T15:59:38.406Z,98655.75
2018-08-24T16:02:13.333Z,98652.49
2018-08-24T16:04:48.026Z,98656.65
2018-08-24T16:07:22.709Z,98650.94
2018-08-24T16:09:57.655Z,98657.59
2018-08-24T16:12:32.161Z,98655.25
2018-08-24T16:15:07.513Z,98657.48
2018-08-24T16:17:42.150Z,98659.28
2018-08-24T16:20:16.737Z,98663.67
2018-08-24T16:22:51.436Z,98657.73
2018-08-24T16:25:25.982Z,98657.38
2018-08-24T16:28:00.421Z,98664.05
2018-08-24T16:30:35.074Z,98660.72
2018-08-24T16:33:09.737Z,98660.88
2018-08-24T16:35:44.473Z,98657.66
2018-08-24T16:38:19.064Z,98647.16
2018-08-24T16:40:53.633Z,98646.36
2018-08-24T16:43:28.433Z,98652.27
2018-08-24T16:46:03.197Z,98656.91
2018-08-24T16:48:37.853Z,98653.33
2018-08-24T16:51:12.567Z,98654.95
2018-08-24T16:56:51.925Z,98656.23
2018-08-24T16:59:26.820Z,98657.03
2018-08-24T17:02:01.243Z,98647.88
2018-08-24T17:04:35.961Z,98644.00
2018-08-24T17:07:10.769Z,98645.19
2018-08-24T17:09:45.397Z,98641.25
2018-08-24T17:12:20.225Z,98640.30
2018-08-24T17:14:54.647Z,98641.20
2018-08-24T17:17:29.421Z,98641.22
2018-08-24T17:20:04.305Z,98641.43
2018-08-24T17:22:39.174Z,98634.41
2018-08-24T17:25:13.699Z,98634.36
2018-08-24T17:27:48.421Z,98636.94
2018-08-24T17:30:23.032Z,98643.00
2018-08-24T17:32:57.665Z,98647.88
2018-08-24T17:35:32.274Z,98642.17
2018-08-24T17:38:07.057Z,98645.59
2018-08-24T17:40:41.721Z,98646.33
2018-08-24T17:43:16.494Z,98650.77
2018-08-24T17:45:51.121Z,98641.22
2018-08-24T17:48:25.786Z,98641.95
2018-08-24T17:51:00.587Z,98638.64
2018-08-24T17:53:35.177Z,98638.42
2018-08-24T17:56:10.358Z,98634.81
2018-08-24T17:58:44.929Z,98635.89
2018-08-24T18:01:19.582Z,98642.80
2018-08-24T18:03:54.249Z,98638.62
2018-08-24T18:06:28.944Z,98636.37
2018-08-24T18:09:05.434Z,98640.17
2018-08-24T18:11:40.581Z,98632.01
2018-08-24T18:14:15.401Z,98636.69
2018-08-24T18:16:50.109Z,98634.86
2018-08-24T18:19:25.120Z,98639.11
2018-08-24T18:21:59.764Z,98646.97
2018-08-24T18:24:34.625Z,98655.62
2018-08-24T18:27:09.418Z,98645.50
2018-08-24T18:29:44.484Z,98647.45
2018-08-24T18:32:18.968Z,98647.23
2018-08-24T18:34:53.516Z,98640.62
2018-08-24T18:37:28.080Z,98647.75
2018-08-24T18:40:02.964Z,98643.14
2018-08-24T18:42:37.500Z,98642.92
2018-08-24T18:45:12.514Z,98643.85
2018-08-24T18:47:47.048Z,98645.06
2018-08-24T18:50:21.845Z,98646.28
2018-08-24T18:52:56.476Z,98649.38
2018-08-24T18:55:31.198Z,98648.75
2018-08-24T18:58:06.039Z,98649.73
2018-08-24T19:00:41.325Z,98648.52
2018-08-24T19:03:16.328Z,98650.59
2018-08-24T19:05:51.349Z,98646.80
2018-08-24T19:08:25.977Z,98651.87
2018-08-24T19:11:05.822Z,98648.92
2018-08-24T19:13:41.017Z,98657.50
2018-08-24T19:16:15.681Z,98659.44
2018-08-24T19:18:55.438Z,98662.18
2018-08-24T19:21:35.217Z,98665.84
2018-08-24T19:24:10.357Z,98663.95
2018-08-24T19:26:44.996Z,98665.77
2018-08-24T19:29:24.857Z,98662.66
2018-08-24T19:31:59.859Z,98661.34
2018-08-24T19:34:34.628Z,98657.94
2018-08-24T19:37:09.358Z,98663.64
2018-08-24T19:39:48.108Z,98662.31
2018-08-24T19:42:24.665Z,98665.09
2018-08-24T19:44:59.457Z,98661.55
2018-08-24T19:47:39.334Z,98657.09
2018-08-24T19:50:14.035Z,98659.83
2018-08-24T19:52:48.628Z,98660.70
2018-08-24T19:55:23.869Z,98660.92
2018-08-24T19:58:03.506Z,98658.76
2018-08-24T20:00:38.153Z,98653.41
2018-08-24T20:03:12.796Z,98652.61
2018-08-24T20:05:53.186Z,98654.81
2018-08-24T20:09:34.021Z,98651.28
2018-08-24T20:12:08.888Z,98642.97
2018-08-24T20:14:49.178Z,98645.16
2018-08-24T20:17:28.010Z,98637.40
2018-08-24T20:20:02.648Z,98637.84
2018-08-24T20:22:37.579Z,98630.77
2018-08-24T20:25:12.277Z,98631.48
2018-08-24T20:27:46.917Z,98628.03
2018-08-24T20:30:21.623Z,98627.44
2018-08-24T20:32:56.561Z,98630.39
2018-08-24T20:35:31.246Z,98625.05
2018-08-24T20:38:06.233Z,98622.78
2018-08-24T20:40:40.760Z,98621.20
2018-08-24T20:43:15.422Z,98622.37
2018-08-24T20:45:50.365Z,98632.42
2018-08-24T20:48:25.341Z,98626.38
2018-08-24T20:50:59.761Z,98621.22
2018-08-24T20:53:34.359Z,98623.31
2018-08-24T20:56:09.141Z,98621.28
2018-08-24T20:58:44.041Z,98619.59
2018-08-24T21:01:18.923Z,98620.73
2018-08-24T21:03:53.491Z,98622.92
2018-08-24T21:06:28.203Z,98613.44
2018-08-24T21:09:02.773Z,98608.62
2018-08-24T21:11:37.406Z,98605.06
2018-08-24T21:14:12.129Z,98600.28
2018-08-24T21:16:46.829Z,98600.60
2018-08-24T21:19:21.297Z,98601.05
2018-08-24T21:21:56.278Z,98599.23
2018-08-24T21:24:30.866Z,98596.59
2018-08-24T21:27:05.806Z,98596.59
2018-08-24T21:29:40.324Z,98599.02
2018-08-24T21:32:14.901Z,98593.41
2018-08-24T21:34:49.482Z,98599.80
2018-08-24T21:37:24.149Z,98596.50
2018-08-24T21:39:58.717Z,98592.70
2018-08-24T21:42:33.384Z,98595.34
2018-08-24T21:45:08.722Z,98600.70
2018-08-24T21:47:43.279Z,98598.98
2018-08-24T21:50:17.897Z,98599.94
2018-08-24T21:52:52.497Z,98602.98
2018-08-24T21:55:27.298Z,98605.28
2018-08-24T21:58:01.878Z,98598.89
2018-08-24T22:00:40.751Z,98596.27
2018-08-24T22:03:15.776Z,98594.55
2018-08-24T22:05:50.731Z,98593.41
2018-08-24T22:08:25.405Z,98594.45
2018-08-24T22:10:59.972Z,98598.12
2018-08-24T22:13:34.681Z,98599.16
2018-08-24T22:16:09.368Z,98590.03
2018-08-24T22:18:43.965Z,98594.61
2018-08-24T22:21:18.646Z,98590.16
2018-08-24T22:23:53.375Z,98592.92
2018-08-24T22:26:27.901Z,98592.14
2018-08-24T22:29:02.484Z,98597.59
2018-08-24T22:31:37.683Z,98599.06
2018-08-24T22:34:12.437Z,98598.52
2018-08-24T22:36:47.037Z,98600.45
2018-08-24T22:39:21.629Z,98598.50
2018-08-24T22:41:56.363Z,98593.05
2018-08-24T22:44:30.954Z,98595.19
2018-08-24T22:47:06.133Z,98590.41
2018-08-24T22:49:40.768Z,98593.44
2018-08-24T22:52:15.353Z,98586.57
2018-08-24T22:54:50.107Z,98587.49
2018-08-24T22:57:24.810Z,98589.88
2018-08-24T22:59:59.585Z,98589.55
2018-08-24T23:02:34.304Z,98587.14
2018-08-24T23:05:09.712Z,98581.22
2018-08-24T23:07:44.345Z,98579.73
2018-08-24T23:10:18.873Z,98580.20
2018-08-24T23:12:53.452Z,98580.02
2018-08-24T23:15:27.977Z,98580.88
2018-08-24T23:18:02.598Z,98571.17
2018-08-24T23:20:37.200Z,98575.78
2018-08-24T23:23:11.728Z,98561.66
2018-08-24T23:25:46.459Z,98567.70
2018-08-24T23:28:21.105Z,98571.16
2018-08-24T23:30:55.692Z,98562.38
2018-08-24T23:33:30.227Z,98559.74
2018-08-24T23:36:05.397Z,98549.15
2018-08-24T23:38:40.018Z,98555.45
2018-08-24T23:41:14.476Z,98545.05
2018-08-24T23:43:49.307Z,98538.30
2018-08-24T23:46:24.716Z,98536.87
2018-08-24T23:48:59.251Z,98536.52
2018-08-24T23:51:33.802Z,98531.63
2018-08-24T23:54:08.523Z,98527.64
2018-08-24T23:56:43.280Z,98525.10
2018-08-24T23:59:18.034Z,98524.21
